Time,TemperatureF,DewpointF,PressureIn,WindDirection,WindDirectionDegrees,WindSpeedMPH,WindSpeedGustMPH,Humidity,HourlyPrecipIn,Conditions,Clouds,dailyrainin,SolarRadiationWatts/m^2,SoftwareType,DateUTC
2013-12-02 00:01:00,34.0,34.0,-100.00,West,262,39.0,55.0,100,0.00,,,2.99,0.000000,,2013-12-02 08:01:00,
2013-12-02 00:42:00,34.0,34.0,-100.00,West,262,39.0,55.0,100,0.00,,,2.99,0.000000,,2013-12-02 08:42:00,
2013-12-02 00:52:00,34.0,34.0,-100.00,West,262,39.0,55.0,100,0.00,,,2.99,0.000000,,2013-12-02 08:52:00,
2013-12-02 01:01:00,33.0,33.0,-100.00,West,265,34.0,59.0,100,0.01,,,2.91,0.000000,,2013-12-02 09:01:00,
2013-12-02 01:43:00,33.0,33.0,-100.00,West,265,34.0,59.0,100,0.01,,,2.91,0.000000,,2013-12-02 09:43:00,
2013-12-02 01:54:00,33.0,33.0,-100.00,West,265,34.0,59.0,100,0.01,,,2.91,0.000000,,2013-12-02 09:54:00,
2013-12-02 02:01:00,32.0,32.0,-100.00,West,260,26.0,45.0,100,0.00,,,2.78,0.000000,,2013-12-02 10:01:00,
2013-12-02 02:42:00,32.0,32.0,-100.00,West,260,26.0,45.0,100,0.00,,,2.78,0.000000,,2013-12-02 10:42:00,
2013-12-02 02:52:00,32.0,32.0,-100.00,West,260,26.0,45.0,100,0.00,,,2.78,0.000000,,2013-12-02 10:52:00,
2013-12-02 03:01:00,32.0,32.0,-100.00,West,266,26.0,42.0,100,0.00,,,2.60,0.000000,,2013-12-02 11:01:00,
2013-12-02 03:22:00,32.0,32.0,-100.00,West,266,26.0,42.0,100,0.00,,,2.60,0.000000,,2013-12-02 11:22:00,
2013-12-02 03:33:00,32.0,32.0,-100.00,West,266,26.0,42.0,100,0.00,,,2.60,0.000000,,2013-12-02 11:33:00,
2013-12-02 03:42:00,32.0,32.0,-100.00,West,266,26.0,42.0,100,0.00,,,2.60,0.000000,,2013-12-02 11:42:00,
2013-12-02 03:53:00,32.0,32.0,-100.00,West,266,26.0,42.0,100,0.00,,,2.60,0.000000,,2013-12-02 11:53:00,
2013-12-02 04:01:00,31.0,31.0,-100.00,West,271,21.0,36.0,100,0.00,,,2.43,0.000000,,2013-12-02 12:01:00,
2013-12-02 04:42:00,31.0,31.0,-100.00,West,271,21.0,36.0,100,0.00,,,2.43,0.000000,,2013-12-02 12:42:00,
2013-12-02 04:52:00,31.0,31.0,-100.00,West,271,21.0,36.0,100,0.00,,,2.43,0.000000,,2013-12-02 12:52:00,
2013-12-02 05:01:00,31.0,31.0,-100.00,West,263,27.0,37.0,100,0.00,,,2.28,0.000000,,2013-12-02 13:01:00,
2013-12-02 05:22:00,31.0,31.0,-100.00,West,263,27.0,37.0,100,0.00,,,2.28,0.000000,,2013-12-02 13:22:00,
2013-12-02 05:32:00,31.0,31.0,-100.00,West,263,27.0,37.0,100,0.00,,,2.28,0.000000,,2013-12-02 13:32:00,
2013-12-02 05:42:00,31.0,31.0,-100.00,West,263,27.0,37.0,100,0.00,,,2.28,0.000000,,2013-12-02 13:42:00,
2013-12-02 05:52:00,31.0,31.0,-100.00,West,263,27.0,37.0,100,0.00,,,2.28,0.000000,,2013-12-02 13:52:00,
2013-12-02 06:01:00,30.0,30.0,-100.00,West,261,23.0,42.0,100,0.00,,,2.17,0.000000,,2013-12-02 14:01:00,
2013-12-02 06:42:00,30.0,30.0,-100.00,West,261,23.0,42.0,100,0.00,,,2.17,0.000000,,2013-12-02 14:42:00,
2013-12-02 06:52:00,30.0,30.0,-100.00,West,261,23.0,42.0,100,0.00,,,2.17,0.000000,,2013-12-02 14:52:00,
2013-12-02 07:01:00,30.0,30.0,-100.00,West,274,18.0,31.0,100,0.00,,,2.10,0.000000,,2013-12-02 15:01:00,
2013-12-02 07:43:00,30.0,30.0,-100.00,West,274,18.0,31.0,100,0.00,,,2.10,0.000000,,2013-12-02 15:43:00,
2013-12-02 07:54:00,30.0,30.0,-100.00,West,274,18.0,31.0,100,0.00,,,2.10,0.000000,,2013-12-02 15:54:00,
2013-12-02 08:01:00,29.0,29.0,-100.00,West,277,26.0,35.0,98,0.00,,,2.07,2.000000,,2013-12-02 16:01:00,
2013-12-02 08:43:00,29.0,29.0,-100.00,West,277,26.0,35.0,98,0.00,,,2.07,2.000000,,2013-12-02 16:43:00,
2013-12-02 08:53:00,29.0,29.0,-100.00,West,277,26.0,35.0,98,0.00,,,2.07,2.000000,,2013-12-02 16:53:00,
2013-12-02 09:01:00,29.0,29.0,-100.00,West,266,22.0,37.0,98,0.00,,,2.02,37.000000,,2013-12-02 17:01:00,
2013-12-02 09:42:00,29.0,29.0,-100.00,West,266,22.0,37.0,98,0.00,,,2.02,37.000000,,2013-12-02 17:42:00,
2013-12-02 09:52:00,29.0,29.0,-100.00,West,266,22.0,37.0,98,0.00,,,2.02,37.000000,,2013-12-02 17:52:00,
2013-12-02 10:01:00,29.0,29.0,-100.00,West,265,20.0,31.0,98,0.00,,,1.98,70.000000,,2013-12-02 18:01:00,
2013-12-02 10:22:00,29.0,29.0,-100.00,West,265,20.0,31.0,98,0.00,,,1.98,70.000000,,2013-12-02 18:22:00,
2013-12-02 10:32:00,29.0,29.0,-100.00,West,265,20.0,31.0,98,0.00,,,1.98,70.000000,,2013-12-02 18:32:00,
2013-12-02 10:42:00,29.0,29.0,-100.00,West,265,20.0,31.0,98,0.00,,,1.98,70.000000,,2013-12-02 18:42:00,
2013-12-02 10:52:00,29.0,29.0,-100.00,West,265,20.0,31.0,98,0.00,,,1.98,70.000000,,2013-12-02 18:52:00,
2013-12-02 11:01:00,29.0,28.0,-100.00,WSW,256,23.0,37.0,97,0.00,,,1.94,96.000000,,2013-12-02 19:01:00,
2013-12-02 11:42:00,29.0,28.0,-100.00,WSW,256,23.0,37.0,97,0.00,,,1.94,96.000000,,2013-12-02 19:42:00,
2013-12-02 11:52:00,29.0,28.0,-100.00,WSW,256,23.0,37.0,97,0.00,,,1.94,96.000000,,2013-12-02 19:52:00,
2013-12-02 12:01:00,30.0,29.0,-100.00,West,276,18.0,28.0,97,0.00,,,1.88,182.000000,,2013-12-02 20:01:00,
2013-12-02 12:21:00,30.0,29.0,-100.00,West,276,18.0,28.0,97,0.00,,,1.88,182.000000,,2013-12-02 20:21:00,
2013-12-02 12:32:00,30.0,29.0,-100.00,West,276,18.0,28.0,97,0.00,,,1.88,182.000000,,2013-12-02 20:32:00,
2013-12-02 12:42:00,30.0,29.0,-100.00,West,276,18.0,28.0,97,0.00,,,1.88,182.000000,,2013-12-02 20:42:00,
2013-12-02 12:52:00,30.0,29.0,-100.00,West,276,18.0,28.0,97,0.00,,,1.88,182.000000,,2013-12-02 20:52:00,
2013-12-02 13:01:00,31.0,30.0,-100.00,West,277,14.0,24.0,97,0.01,,,1.73,141.000000,,2013-12-02 21:01:00,
2013-12-02 13:22:00,31.0,30.0,-100.00,West,277,14.0,24.0,97,0.01,,,1.73,141.000000,,2013-12-02 21:22:00,
2013-12-02 13:34:00,31.0,30.0,-100.00,West,277,14.0,24.0,97,0.01,,,1.73,141.000000,,2013-12-02 21:34:00,
2013-12-02 13:43:00,31.0,30.0,-100.00,West,277,14.0,24.0,97,0.01,,,1.73,141.000000,,2013-12-02 21:43:00,
2013-12-02 13:53:00,31.0,30.0,-100.00,West,277,14.0,24.0,97,0.01,,,1.73,141.000000,,2013-12-02 21:53:00,
2013-12-02 14:01:00,30.0,29.0,-100.00,West,265,16.0,27.0,97,0.01,,,1.51,123.000000,,2013-12-02 22:01:00,
2013-12-02 14:23:00,30.0,29.0,-100.00,West,265,16.0,27.0,97,0.01,,,1.51,123.000000,,2013-12-02 22:23:00,
2013-12-02 14:33:00,30.0,29.0,-100.00,West,265,16.0,27.0,97,0.01,,,1.51,123.000000,,2013-12-02 22:33:00,
2013-12-02 14:43:00,30.0,29.0,-100.00,West,265,16.0,27.0,97,0.01,,,1.51,123.000000,,2013-12-02 22:43:00,
2013-12-02 14:53:00,30.0,29.0,-100.00,West,265,16.0,27.0,97,0.01,,,1.51,123.000000,,2013-12-02 22:53:00,
2013-12-02 15:01:00,30.0,30.0,-100.00,WSW,239,12.0,28.0,99,0.00,,,1.12,51.000000,,2013-12-02 23:01:00,
2013-12-02 15:42:00,30.0,30.0,-100.00,WSW,239,12.0,28.0,99,0.00,,,1.12,51.000000,,2013-12-02 23:42:00,
2013-12-02 15:53:00,30.0,30.0,-100.00,WSW,239,12.0,28.0,99,0.00,,,1.12,51.000000,,2013-12-02 23:53:00,
2013-12-02 16:01:00,30.0,29.0,-100.00,WSW,250,13.0,25.0,98,0.00,,,0.82,35.000000,,2013-12-03 00:01:00,
2013-12-02 16:22:00,30.0,29.0,-100.00,WSW,250,13.0,25.0,98,0.00,,,0.82,35.000000,,2013-12-03 00:22:00,
2013-12-02 16:32:00,30.0,29.0,-100.00,WSW,250,13.0,25.0,98,0.00,,,0.82,35.000000,,2013-12-03 00:32:00,
2013-12-02 16:42:00,30.0,29.0,-100.00,WSW,250,13.0,25.0,98,0.00,,,0.82,35.000000,,2013-12-03 00:42:00,
2013-12-02 16:52:00,30.0,29.0,-100.00,WSW,250,13.0,25.0,98,0.00,,,0.82,35.000000,,2013-12-03 00:52:00,
2013-12-02 17:01:00,29.0,29.0,-100.00,West,270,18.0,24.0,98,0.00,,,0.62,5.000000,,2013-12-03 01:01:00,
2013-12-02 17:42:00,29.0,29.0,-100.00,West,270,18.0,24.0,98,0.00,,,0.62,5.000000,,2013-12-03 01:42:00,
2013-12-02 17:52:00,29.0,29.0,-100.00,West,270,18.0,24.0,98,0.00,,,0.62,5.000000,,2013-12-03 01:52:00,
2013-12-02 18:01:00,27.0,27.0,-100.00,WNW,282,10.0,20.0,98,0.00,,,0.50,0.000000,,2013-12-03 02:01:00,
2013-12-02 18:42:00,27.0,27.0,-100.00,WNW,282,10.0,20.0,98,0.00,,,0.50,0.000000,,2013-12-03 02:42:00,
2013-12-02 18:52:00,27.0,27.0,-100.00,WNW,282,10.0,20.0,98,0.00,,,0.50,0.000000,,2013-12-03 02:52:00,
2013-12-02 19:01:00,28.0,28.0,-100.00,WNW,285,16.0,20.0,98,0.00,,,0.35,0.000000,,2013-12-03 03:01:00,
2013-12-02 19:43:00,28.0,28.0,-100.00,WNW,285,16.0,20.0,98,0.00,,,0.35,0.000000,,2013-12-03 03:43:00,
2013-12-02 19:53:00,28.0,28.0,-100.00,WNW,285,16.0,20.0,98,0.00,,,0.35,0.000000,,2013-12-03 03:53:00,
2013-12-02 20:01:00,28.0,28.0,-100.00,WNW,285,16.0,21.0,98,0.00,,,0.19,0.000000,,2013-12-03 04:01:00,
2013-12-02 20:43:00,28.0,28.0,-100.00,WNW,285,16.0,21.0,98,0.00,,,0.19,0.000000,,2013-12-03 04:43:00,
2013-12-02 20:52:00,28.0,28.0,-100.00,WNW,285,16.0,21.0,98,0.00,,,0.19,0.000000,,2013-12-03 04:52:00,
2013-12-02 21:01:00,28.0,28.0,-100.00,West,280,14.0,18.0,98,0.00,,,0.08,0.000000,,2013-12-03 05:01:00,
2013-12-02 21:22:00,28.0,28.0,-100.00,West,280,14.0,18.0,98,0.00,,,0.08,0.000000,,2013-12-03 05:22:00,
2013-12-02 21:33:00,28.0,28.0,-100.00,West,280,14.0,18.0,98,0.00,,,0.08,0.000000,,2013-12-03 05:33:00,
2013-12-02 21:42:00,28.0,28.0,-100.00,West,280,14.0,18.0,98,0.00,,,0.08,0.000000,,2013-12-03 05:42:00,
2013-12-02 21:53:00,28.0,28.0,-100.00,West,280,14.0,18.0,98,0.00,,,0.08,0.000000,,2013-12-03 05:53:00,
2013-12-02 22:01:00,28.0,28.0,-100.00,WNW,296,9.0,18.0,98,0.00,,,0.04,0.000000,,2013-12-03 06:01:00,
2013-12-02 22:42:00,28.0,28.0,-100.00,WNW,296,9.0,18.0,98,0.00,,,0.04,0.000000,,2013-12-03 06:42:00,
2013-12-02 22:52:00,28.0,28.0,-100.00,WNW,296,9.0,18.0,98,0.00,,,0.04,0.000000,,2013-12-03 06:52:00,
2013-12-02 23:01:00,28.0,28.0,-100.00,North,9,8.0,13.0,98,0.00,,,0.03,0.000000,,2013-12-03 07:01:00,
2013-12-02 23:42:00,28.0,28.0,-100.00,North,9,8.0,13.0,98,0.00,,,0.03,0.000000,,2013-12-03 07:42:00,
2013-12-02 23:52:00,28.0,28.0,-100.00,North,9,8.0,13.0,98,0.00,,,0.03,0.000000,,2013-12-03 07:52:00,